sensor_id;sensor_type;location;lat;lon;timestamp;P1;durP1;ratioP1;P2;durP2;ratioP2
52934;SDS011;38802;50.198;19.796;2024-02-26T00:02:17;14.90;;;10.40;;
52934;SDS011;38802;50.198;19.796;2024-02-26T01:11:15;6.10;;;4.20;;
52934;SDS011;38802;50.198;19.796;2024-02-26T01:13:44;5.80;;;5.20;;
52934;SDS011;38802;50.198;19.796;2024-02-26T01:16:11;6.60;;;4.70;;
52934;SDS011;38802;50.198;19.796;2024-02-26T01:18:40;4.70;;;3.90;;
52934;SDS011;38802;50.198;19.796;2024-02-26T01:21:08;4.50;;;4.10;;
52934;SDS011;38802;50.198;19.796;2024-02-26T01:23:37;5.60;;;4.30;;
52934;SDS011;38802;50.198;19.796;2024-02-26T01:26:04;5.10;;;3.90;;
52934;SDS011;38802;50.198;19.796;2024-02-26T01:28:32;5.80;;;4.00;;
52934;SDS011;38802;50.198;19.796;2024-02-26T01:31:00;4.40;;;4.00;;
52934;SDS011;38802;50.198;19.796;2024-02-26T01:33:28;4.40;;;4.00;;
52934;SDS011;38802;50.198;19.796;2024-02-26T01:35:56;5.80;;;4.20;;
52934;SDS011;38802;50.198;19.796;2024-02-26T01:38:24;5.30;;;4.50;;
52934;SDS011;38802;50.198;19.796;2024-02-26T01:40:52;5.80;;;4.70;;
52934;SDS011;38802;50.198;19.796;2024-02-26T01:43:20;5.90;;;4.70;;
52934;SDS011;38802;50.198;19.796;2024-02-26T01:45:48;7.60;;;4.70;;
52934;SDS011;38802;50.198;19.796;2024-02-26T01:48:16;5.60;;;4.90;;
52934;SDS011;38802;50.198;19.796;2024-02-26T01:50:45;8.50;;;6.10;;
52934;SDS011;38802;50.198;19.796;2024-02-26T01:53:13;9.10;;;6.00;;
52934;SDS011;38802;50.198;19.796;2024-02-26T01:55:42;7.30;;;6.60;;
52934;SDS011;38802;50.198;19.796;2024-02-26T01:58:10;7.80;;;6.80;;
52934;SDS011;38802;50.198;19.796;2024-02-26T02:00:38;8.00;;;7.20;;
52934;SDS011;38802;50.198;19.796;2024-02-26T02:03:07;7.70;;;6.30;;
52934;SDS011;38802;50.198;19.796;2024-02-26T02:05:35;11.60;;;7.30;;
52934;SDS011;38802;50.198;19.796;2024-02-26T02:08:10;15.30;;;7.70;;
52934;SDS011;38802;50.198;19.796;2024-02-26T02:10:42;11.10;;;7.40;;
52934;SDS011;38802;50.198;19.796;2024-02-26T02:13:12;14.20;;;8.60;;
52934;SDS011;38802;50.198;19.796;2024-02-26T02:15:42;13.30;;;7.90;;
52934;SDS011;38802;50.198;19.796;2024-02-26T02:18:16;13.70;;;9.30;;
52934;SDS011;38802;50.198;19.796;2024-02-26T02:20:45;13.70;;;9.80;;
52934;SDS011;38802;50.198;19.796;2024-02-26T02:23:20;11.00;;;9.10;;
52934;SDS011;38802;50.198;19.796;2024-02-26T02:25:48;13.30;;;9.90;;
52934;SDS011;38802;50.198;19.796;2024-02-26T02:28:16;11.90;;;9.00;;
52934;SDS011;38802;50.198;19.796;2024-02-26T02:30:45;11.90;;;9.80;;
52934;SDS011;38802;50.198;19.796;2024-02-26T02:33:13;14.20;;;11.00;;
52934;SDS011;38802;50.198;19.796;2024-02-26T02:35:43;20.20;;;12.90;;
52934;SDS011;38802;50.198;19.796;2024-02-26T02:38:12;21.20;;;12.80;;
52934;SDS011;38802;50.198;19.796;2024-02-26T02:40:40;17.10;;;12.50;;
52934;SDS011;38802;50.198;19.796;2024-02-26T02:43:08;24.10;;;15.90;;
52934;SDS011;38802;50.198;19.796;2024-02-26T02:45:36;20.30;;;14.30;;
52934;SDS011;38802;50.198;19.796;2024-02-26T02:48:04;24.10;;;16.30;;
52934;SDS011;38802;50.198;19.796;2024-02-26T02:50:32;23.10;;;15.30;;
52934;SDS011;38802;50.198;19.796;2024-02-26T02:53:00;21.00;;;14.90;;
52934;SDS011;38802;50.198;19.796;2024-02-26T02:55:29;28.70;;;16.50;;
52934;SDS011;38802;50.198;19.796;2024-02-26T02:57:58;22.80;;;16.40;;
52934;SDS011;38802;50.198;19.796;2024-02-26T03:00:26;28.20;;;17.00;;
52934;SDS011;38802;50.198;19.796;2024-02-26T03:02:54;29.50;;;18.10;;
52934;SDS011;38802;50.198;19.796;2024-02-26T03:05:22;28.80;;;17.70;;
52934;SDS011;38802;50.198;19.796;2024-02-26T03:07:50;34.10;;;17.30;;
52934;SDS011;38802;50.198;19.796;2024-02-26T03:10:19;24.50;;;17.30;;
52934;SDS011;38802;50.198;19.796;2024-02-26T03:12:47;31.20;;;18.50;;
52934;SDS011;38802;50.198;19.796;2024-02-26T03:15:15;28.60;;;17.70;;
52934;SDS011;38802;50.198;19.796;2024-02-26T03:17:43;23.30;;;17.40;;
52934;SDS011;38802;50.198;19.796;2024-02-26T03:20:11;24.90;;;17.50;;
52934;SDS011;38802;50.198;19.796;2024-02-26T03:22:39;24.40;;;16.10;;
52934;SDS011;38802;50.198;19.796;2024-02-26T03:25:07;26.00;;;16.30;;
52934;SDS011;38802;50.198;19.796;2024-02-26T03:27:35;21.60;;;14.70;;
52934;SDS011;38802;50.198;19.796;2024-02-26T03:30:04;22.40;;;14.20;;
52934;SDS011;38802;50.198;19.796;2024-02-26T03:32:32;23.80;;;13.90;;
52934;SDS011;38802;50.198;19.796;2024-02-26T03:35:00;16.90;;;12.00;;
52934;SDS011;38802;50.198;19.796;2024-02-26T03:37:31;18.80;;;12.10;;
52934;SDS011;38802;50.198;19.796;2024-02-26T03:39:58;14.50;;;11.10;;
52934;SDS011;38802;50.198;19.796;2024-02-26T03:42:29;20.00;;;11.90;;
52934;SDS011;38802;50.198;19.796;2024-02-26T03:44:57;16.60;;;11.40;;
52934;SDS011;38802;50.198;19.796;2024-02-26T03:47:25;16.30;;;10.80;;
52934;SDS011;38802;50.198;19.796;2024-02-26T03:49:53;15.10;;;10.80;;
52934;SDS011;38802;50.198;19.796;2024-02-26T03:52:21;12.90;;;11.00;;
52934;SDS011;38802;50.198;19.796;2024-02-26T03:54:49;16.70;;;11.30;;
52934;SDS011;38802;50.198;19.796;2024-02-26T03:57:17;16.60;;;12.00;;
52934;SDS011;38802;50.198;19.796;2024-02-26T03:59:45;16.20;;;11.50;;
52934;SDS011;38802;50.198;19.796;2024-02-26T04:02:13;16.70;;;12.00;;
52934;SDS011;38802;50.198;19.796;2024-02-26T04:04:41;15.20;;;11.50;;
52934;SDS011;38802;50.198;19.796;2024-02-26T04:07:09;13.30;;;10.50;;
52934;SDS011;38802;50.198;19.796;2024-02-26T04:09:39;13.90;;;10.60;;
52934;SDS011;38802;50.198;19.796;2024-02-26T04:12:07;12.10;;;9.90;;
52934;SDS011;38802;50.198;19.796;2024-02-26T04:14:35;13.10;;;10.30;;
52934;SDS011;38802;50.198;19.796;2024-02-26T04:17:04;10.40;;;8.70;;
52934;SDS011;38802;50.198;19.796;2024-02-26T04:19:32;12.20;;;8.70;;
52934;SDS011;38802;50.198;19.796;2024-02-26T04:22:00;9.80;;;7.80;;
52934;SDS011;38802;50.198;19.796;2024-02-26T04:24:29;10.20;;;8.30;;
52934;SDS011;38802;50.198;19.796;2024-02-26T04:26:57;11.10;;;7.40;;
52934;SDS011;38802;50.198;19.796;2024-02-26T04:29:25;10.00;;;7.10;;
52934;SDS011;38802;50.198;19.796;2024-02-26T04:31:53;9.50;;;7.70;;
52934;SDS011;38802;50.198;19.796;2024-02-26T04:34:21;8.20;;;6.70;;
52934;SDS011;38802;50.198;19.796;2024-02-26T04:36:49;8.50;;;7.00;;
52934;SDS011;38802;50.198;19.796;2024-02-26T04:39:17;7.40;;;6.60;;
52934;SDS011;38802;50.198;19.796;2024-02-26T04:41:45;12.30;;;7.00;;
52934;SDS011;38802;50.198;19.796;2024-02-26T04:44:13;7.60;;;6.70;;
52934;SDS011;38802;50.198;19.796;2024-02-26T04:46:41;7.30;;;6.30;;
52934;SDS011;38802;50.198;19.796;2024-02-26T04:49:09;5.50;;;5.00;;
52934;SDS011;38802;50.198;19.796;2024-02-26T04:51:38;5.90;;;5.10;;
52934;SDS011;38802;50.198;19.796;2024-02-26T04:54:05;6.40;;;5.80;;
52934;SDS011;38802;50.198;19.796;2024-02-26T04:56:34;6.70;;;6.10;;
52934;SDS011;38802;50.198;19.796;2024-02-26T04:59:01;7.50;;;4.90;;
52934;SDS011;38802;50.198;19.796;2024-02-26T05:01:30;5.10;;;4.60;;
52934;SDS011;38802;50.198;19.796;2024-02-26T05:03:58;6.00;;;4.80;;
52934;SDS011;38802;50.198;19.796;2024-02-26T05:06:26;5.40;;;4.80;;
52934;SDS011;38802;50.198;19.796;2024-02-26T05:08:55;6.60;;;5.40;;
52934;SDS011;38802;50.198;19.796;2024-02-26T05:11:23;5.10;;;4.60;;
52934;SDS011;38802;50.198;19.796;2024-02-26T05:13:51;5.40;;;4.90;;
52934;SDS011;38802;50.198;19.796;2024-02-26T05:16:19;6.80;;;5.10;;
52934;SDS011;38802;50.198;19.796;2024-02-26T05:18:48;5.70;;;5.20;;
52934;SDS011;38802;50.198;19.796;2024-02-26T05:21:16;5.80;;;4.70;;
52934;SDS011;38802;50.198;19.796;2024-02-26T05:23:44;7.20;;;6.40;;
52934;SDS011;38802;50.198;19.796;2024-02-26T05:26:18;5.90;;;5.20;;
52934;SDS011;38802;50.198;19.796;2024-02-26T05:28:48;5.90;;;5.30;;
52934;SDS011;38802;50.198;19.796;2024-02-26T05:31:16;7.10;;;5.50;;
52934;SDS011;38802;50.198;19.796;2024-02-26T05:33:45;7.10;;;5.80;;
52934;SDS011;38802;50.198;19.796;2024-02-26T05:36:20;5.80;;;5.10;;
52934;SDS011;38802;50.198;19.796;2024-02-26T05:41:18;10.80;;;6.00;;
52934;SDS011;38802;50.198;19.796;2024-02-26T05:43:51;10.60;;;6.80;;
52934;SDS011;38802;50.198;19.796;2024-02-26T05:46:20;9.30;;;7.00;;
52934;SDS011;38802;50.198;19.796;2024-02-26T05:48:49;7.40;;;5.90;;
52934;SDS011;38802;50.198;19.796;2024-02-26T05:51:20;9.30;;;6.40;;
52934;SDS011;38802;50.198;19.796;2024-02-26T05:53:48;9.10;;;6.60;;
52934;SDS011;38802;50.198;19.796;2024-02-26T05:56:22;7.20;;;6.50;;
52934;SDS011;38802;50.198;19.796;2024-02-26T05:58:50;9.30;;;6.10;;
52934;SDS011;38802;50.198;19.796;2024-02-26T06:01:19;8.20;;;6.20;;
52934;SDS011;38802;50.198;19.796;2024-02-26T06:03:48;6.50;;;5.90;;
52934;SDS011;38802;50.198;19.796;2024-02-26T06:06:16;8.00;;;6.30;;
52934;SDS011;38802;50.198;19.796;2024-02-26T06:08:45;5.80;;;5.30;;
52934;SDS011;38802;50.198;19.796;2024-02-26T06:11:13;7.20;;;6.30;;
52934;SDS011;38802;50.198;19.796;2024-02-26T06:13:41;7.30;;;5.30;;
52934;SDS011;38802;50.198;19.796;2024-02-26T06:16:09;6.40;;;5.70;;
52934;SDS011;38802;50.198;19.796;2024-02-26T06:18:37;7.80;;;7.00;;
52934;SDS011;38802;50.198;19.796;2024-02-26T06:21:08;7.20;;;6.50;;
52934;SDS011;38802;50.198;19.796;2024-02-26T06:23:38;6.80;;;6.00;;
52934;SDS011;38802;50.198;19.796;2024-02-26T06:26:07;7.20;;;6.20;;
52934;SDS011;38802;50.198;19.796;2024-02-26T06:28:35;10.30;;;7.00;;
52934;SDS011;38802;50.198;19.796;2024-02-26T06:31:04;10.90;;;7.20;;
52934;SDS011;38802;50.198;19.796;2024-02-26T06:33:32;10.30;;;7.50;;
52934;SDS011;38802;50.198;19.796;2024-02-26T06:36:00;11.00;;;7.90;;
52934;SDS011;38802;50.198;19.796;2024-02-26T06:38:29;7.90;;;6.20;;
52934;SDS011;38802;50.198;19.796;2024-02-26T06:40:57;8.80;;;6.20;;
52934;SDS011;38802;50.198;19.796;2024-02-26T06:43:25;7.80;;;6.50;;
52934;SDS011;38802;50.198;19.796;2024-02-26T06:45:53;8.20;;;6.70;;
52934;SDS011;38802;50.198;19.796;2024-02-26T06:48:22;6.70;;;6.00;;
52934;SDS011;38802;50.198;19.796;2024-02-26T06:50:51;8.20;;;6.60;;
52934;SDS011;38802;50.198;19.796;2024-02-26T06:53:19;10.90;;;6.60;;
52934;SDS011;38802;50.198;19.796;2024-02-26T06:55:47;8.70;;;6.70;;
52934;SDS011;38802;50.198;19.796;2024-02-26T06:58:17;10.30;;;6.50;;
52934;SDS011;38802;50.198;19.796;2024-02-26T07:00:46;7.30;;;6.10;;
52934;SDS011;38802;50.198;19.796;2024-02-26T07:03:14;6.50;;;5.80;;
52934;SDS011;38802;50.198;19.796;2024-02-26T07:05:43;8.00;;;5.20;;
52934;SDS011;38802;50.198;19.796;2024-02-26T07:08:13;8.80;;;4.90;;
52934;SDS011;38802;50.198;19.796;2024-02-26T07:10:41;5.90;;;4.70;;
52934;SDS011;38802;50.198;19.796;2024-02-26T07:13:09;5.50;;;4.30;;
52934;SDS011;38802;50.198;19.796;2024-02-26T07:15:37;6.10;;;5.20;;
52934;SDS011;38802;50.198;19.796;2024-02-26T07:18:05;4.60;;;4.10;;
52934;SDS011;38802;50.198;19.796;2024-02-26T07:20:34;5.20;;;4.40;;
52934;SDS011;38802;50.198;19.796;2024-02-26T07:23:02;3.60;;;3.20;;
52934;SDS011;38802;50.198;19.796;2024-02-26T07:25:31;3.80;;;3.40;;
52934;SDS011;38802;50.198;19.796;2024-02-26T07:27:59;5.40;;;3.20;;
52934;SDS011;38802;50.198;19.796;2024-02-26T07:30:27;4.50;;;3.50;;
52934;SDS011;38802;50.198;19.796;2024-02-26T07:32:55;3.70;;;3.30;;
52934;SDS011;38802;50.198;19.796;2024-02-26T07:35:24;4.00;;;3.60;;
52934;SDS011;38802;50.198;19.796;2024-02-26T07:37:53;4.70;;;3.80;;
52934;SDS011;38802;50.198;19.796;2024-02-26T07:40:21;3.80;;;3.40;;
52934;SDS011;38802;50.198;19.796;2024-02-26T07:42:52;4.00;;;3.50;;
52934;SDS011;38802;50.198;19.796;2024-02-26T07:45:20;4.50;;;2.90;;
52934;SDS011;38802;50.198;19.796;2024-02-26T07:47:48;2.50;;;2.30;;
52934;SDS011;38802;50.198;19.796;2024-02-26T07:50:19;4.10;;;3.40;;
52934;SDS011;38802;50.198;19.796;2024-02-26T07:52:48;3.90;;;3.10;;
52934;SDS011;38802;50.198;19.796;2024-02-26T07:55:19;3.60;;;2.80;;
52934;SDS011;38802;50.198;19.796;2024-02-26T07:57:47;3.90;;;2.50;;
52934;SDS011;38802;50.198;19.796;2024-02-26T08:00:15;2.50;;;2.30;;
52934;SDS011;38802;50.198;19.796;2024-02-26T08:02:45;2.70;;;2.50;;
52934;SDS011;38802;50.198;19.796;2024-02-26T08:05:13;2.30;;;2.00;;
52934;SDS011;38802;50.198;19.796;2024-02-26T08:07:42;3.00;;;2.30;;
52934;SDS011;38802;50.198;19.796;2024-02-26T08:10:10;3.50;;;1.90;;
52934;SDS011;38802;50.198;19.796;2024-02-26T08:12:41;2.90;;;2.30;;
52934;SDS011;38802;50.198;19.796;2024-02-26T08:15:09;2.30;;;2.00;;
52934;SDS011;38802;50.198;19.796;2024-02-26T08:17:38;2.30;;;2.00;;
52934;SDS011;38802;50.198;19.796;2024-02-26T08:20:07;3.30;;;2.00;;
52934;SDS011;38802;50.198;19.796;2024-02-26T08:22:36;2.80;;;2.30;;
52934;SDS011;38802;50.198;19.796;2024-02-26T08:25:05;2.30;;;2.00;;
52934;SDS011;38802;50.198;19.796;2024-02-26T08:27:34;3.30;;;2.00;;
52934;SDS011;38802;50.198;19.796;2024-02-26T08:30:03;3.70;;;2.80;;
52934;SDS011;38802;50.198;19.796;2024-02-26T08:32:31;3.90;;;2.60;;
52934;SDS011;38802;50.198;19.796;2024-02-26T08:34:59;2.10;;;1.90;;
52934;SDS011;38802;50.198;19.796;2024-02-26T08:37:28;2.10;;;1.90;;
52934;SDS011;38802;50.198;19.796;2024-02-26T08:39:56;2.60;;;2.10;;
52934;SDS011;38802;50.198;19.796;2024-02-26T08:42:28;3.60;;;2.40;;
52934;SDS011;38802;50.198;19.796;2024-02-26T08:44:56;2.20;;;2.00;;
52934;SDS011;38802;50.198;19.796;2024-02-26T08:47:24;2.40;;;1.90;;
52934;SDS011;38802;50.198;19.796;2024-02-26T08:49:52;3.10;;;2.40;;
52934;SDS011;38802;50.198;19.796;2024-02-26T08:52:20;2.40;;;2.20;;
52934;SDS011;38802;50.198;19.796;2024-02-26T08:54:49;3.20;;;2.20;;
52934;SDS011;38802;50.198;19.796;2024-02-26T08:57:17;2.10;;;1.90;;
52934;SDS011;38802;50.198;19.796;2024-02-26T08:59:45;3.40;;;2.10;;
52934;SDS011;38802;50.198;19.796;2024-02-26T09:02:13;2.60;;;2.40;;
52934;SDS011;38802;50.198;19.796;2024-02-26T09:04:41;3.00;;;2.20;;
52934;SDS011;38802;50.198;19.796;2024-02-26T09:07:10;3.10;;;2.20;;
52934;SDS011;38802;50.198;19.796;2024-02-26T09:09:38;3.40;;;2.60;;
52934;SDS011;38802;50.198;19.796;2024-02-26T09:12:06;2.90;;;2.40;;
52934;SDS011;38802;50.198;19.796;2024-02-26T09:14:34;2.50;;;2.30;;
52934;SDS011;38802;50.198;19.796;2024-02-26T09:17:02;2.80;;;2.40;;
52934;SDS011;38802;50.198;19.796;2024-02-26T09:19:31;2.80;;;2.40;;
52934;SDS011;38802;50.198;19.796;2024-02-26T09:21:59;2.90;;;2.40;;
52934;SDS011;38802;50.198;19.796;2024-02-26T09:24:28;3.60;;;2.30;;
52934;SDS011;38802;50.198;19.796;2024-02-26T09:26:56;2.40;;;2.10;;
52934;SDS011;38802;50.198;19.796;2024-02-26T09:29:24;2.10;;;1.80;;
52934;SDS011;38802;50.198;19.796;2024-02-26T09:31:54;2.20;;;1.70;;
52934;SDS011;38802;50.198;19.796;2024-02-26T09:34:22;2.00;;;1.80;;
52934;SDS011;38802;50.198;19.796;2024-02-26T09:36:50;1.60;;;1.30;;
52934;SDS011;38802;50.198;19.796;2024-02-26T09:39:18;1.30;;;1.20;;
52934;SDS011;38802;50.198;19.796;2024-02-26T09:41:49;1.20;;;1.00;;
52934;SDS011;38802;50.198;19.796;2024-02-26T09:44:19;3.10;;;1.40;;
52934;SDS011;38802;50.198;19.796;2024-02-26T09:46:50;2.40;;;1.40;;
52934;SDS011;38802;50.198;19.796;2024-02-26T09:49:20;2.60;;;1.30;;
52934;SDS011;38802;50.198;19.796;2024-02-26T09:51:51;2.30;;;1.80;;
52934;SDS011;38802;50.198;19.796;2024-02-26T09:54:22;1.40;;;1.30;;
52934;SDS011;38802;50.198;19.796;2024-02-26T09:56:54;1.80;;;1.50;;
52934;SDS011;38802;50.198;19.796;2024-02-26T09:59:36;2.30;;;1.30;;
52934;SDS011;38802;50.198;19.796;2024-02-26T10:02:13;2.50;;;1.70;;
52934;SDS011;38802;50.198;19.796;2024-02-26T10:04:43;2.60;;;2.00;;
52934;SDS011;38802;50.198;19.796;2024-02-26T10:07:16;2.90;;;2.00;;
52934;SDS011;38802;50.198;19.796;2024-02-26T10:09:45;2.00;;;1.40;;
52934;SDS011;38802;50.198;19.796;2024-02-26T10:12:13;2.90;;;1.90;;
52934;SDS011;38802;50.198;19.796;2024-02-26T10:14:45;2.50;;;2.10;;
52934;SDS011;38802;50.198;19.796;2024-02-26T10:17:13;4.10;;;2.30;;
52934;SDS011;38802;50.198;19.796;2024-02-26T10:19:41;4.20;;;3.00;;
52934;SDS011;38802;50.198;19.796;2024-02-26T10:22:10;3.50;;;3.20;;
52934;SDS011;38802;50.198;19.796;2024-02-26T10:24:38;4.80;;;3.30;;
52934;SDS011;38802;50.198;19.796;2024-02-26T10:27:06;4.00;;;3.40;;
52934;SDS011;38802;50.198;19.796;2024-02-26T10:29:36;5.00;;;3.50;;
52934;SDS011;38802;50.198;19.796;2024-02-26T10:32:04;7.50;;;3.80;;
52934;SDS011;38802;50.198;19.796;2024-02-26T10:34:33;6.30;;;4.20;;
52934;SDS011;38802;50.198;19.796;2024-02-26T10:37:05;4.10;;;3.80;;
52934;SDS011;38802;50.198;19.796;2024-02-26T10:39:35;6.70;;;4.40;;
52934;SDS011;38802;50.198;19.796;2024-02-26T10:42:06;4.50;;;3.80;;
52934;SDS011;38802;50.198;19.796;2024-02-26T10:44:40;10.60;;;4.60;;
52934;SDS011;38802;50.198;19.796;2024-02-26T10:47:08;5.60;;;4.40;;
52934;SDS011;38802;50.198;19.796;2024-02-26T10:49:36;6.30;;;3.50;;
52934;SDS011;38802;50.198;19.796;2024-02-26T10:52:05;6.40;;;5.00;;
52934;SDS011;38802;50.198;19.796;2024-02-26T10:54:34;6.00;;;5.20;;
52934;SDS011;38802;50.198;19.796;2024-02-26T10:57:06;13.20;;;5.80;;
52934;SDS011;38802;50.198;19.796;2024-02-26T10:59:36;6.30;;;5.60;;
52934;SDS011;38802;50.198;19.796;2024-02-26T11:02:07;7.50;;;6.30;;
52934;SDS011;38802;50.198;19.796;2024-02-26T11:04:37;9.70;;;6.90;;
52934;SDS011;38802;50.198;19.796;2024-02-26T11:07:08;8.30;;;6.90;;
52934;SDS011;38802;50.198;19.796;2024-02-26T11:09:39;9.90;;;7.10;;
52934;SDS011;38802;50.198;19.796;2024-02-26T11:12:12;7.90;;;7.10;;
52934;SDS011;38802;50.198;19.796;2024-02-26T11:14:42;11.50;;;6.70;;
52934;SDS011;38802;50.198;19.796;2024-02-26T11:17:13;7.60;;;6.40;;
52934;SDS011;38802;50.198;19.796;2024-02-26T11:19:44;8.30;;;7.20;;
52934;SDS011;38802;50.198;19.796;2024-02-26T11:22:14;9.20;;;6.90;;
52934;SDS011;38802;50.198;19.796;2024-02-26T11:24:52;10.90;;;8.20;;
52934;SDS011;38802;50.198;19.796;2024-02-26T11:27:23;9.20;;;7.60;;
52934;SDS011;38802;50.198;19.796;2024-02-26T11:29:58;11.00;;;8.60;;
52934;SDS011;38802;50.198;19.796;2024-02-26T11:32:28;13.40;;;9.20;;
52934;SDS011;38802;50.198;19.796;2024-02-26T11:34:58;12.20;;;10.30;;
52934;SDS011;38802;50.198;19.796;2024-02-26T11:37:27;24.90;;;18.00;;
52934;SDS011;38802;50.198;19.796;2024-02-26T11:39:55;19.40;;;12.10;;
52934;SDS011;38802;50.198;19.796;2024-02-26T11:42:30;12.90;;;10.30;;
52934;SDS011;38802;50.198;19.796;2024-02-26T11:44:58;12.30;;;7.60;;
52934;SDS011;38802;50.198;19.796;2024-02-26T11:47:29;7.70;;;4.60;;
52934;SDS011;38802;50.198;19.796;2024-02-26T11:49:57;5.10;;;4.60;;
52934;SDS011;38802;50.198;19.796;2024-02-26T11:52:26;9.90;;;7.50;;
52934;SDS011;38802;50.198;19.796;2024-02-26T11:54:56;13.70;;;9.00;;
52934;SDS011;38802;50.198;19.796;2024-02-26T11:57:39;6.40;;;5.30;;
52934;SDS011;38802;50.198;19.796;2024-02-26T12:00:14;6.20;;;4.50;;
52934;SDS011;38802;50.198;19.796;2024-02-26T12:02:55;5.60;;;5.00;;
52934;SDS011;38802;50.198;19.796;2024-02-26T12:05:31;6.30;;;4.20;;
52934;SDS011;38802;50.198;19.796;2024-02-26T12:08:03;5.60;;;4.10;;
52934;SDS011;38802;50.198;19.796;2024-02-26T12:10:36;6.40;;;4.20;;
52934;SDS011;38802;50.198;19.796;2024-02-26T12:13:10;7.70;;;5.50;;
52934;SDS011;38802;50.198;19.796;2024-02-26T12:18:19;11.10;;;7.10;;
52934;SDS011;38802;50.198;19.796;2024-02-26T12:21:01;7.70;;;6.70;;
52934;SDS011;38802;50.198;19.796;2024-02-26T12:23:32;6.90;;;5.50;;
52934;SDS011;38802;50.198;19.796;2024-02-26T12:26:00;6.30;;;5.10;;
52934;SDS011;38802;50.198;19.796;2024-02-26T12:28:33;5.70;;;4.30;;
52934;SDS011;38802;50.198;19.796;2024-02-26T12:31:01;9.10;;;4.90;;
52934;SDS011;38802;50.198;19.796;2024-02-26T12:33:30;8.40;;;4.70;;
52934;SDS011;38802;50.198;19.796;2024-02-26T12:35:58;5.00;;;3.70;;
52934;SDS011;38802;50.198;19.796;2024-02-26T12:38:27;4.10;;;3.70;;
52934;SDS011;38802;50.198;19.796;2024-02-26T12:40:55;5.30;;;3.80;;
52934;SDS011;38802;50.198;19.796;2024-02-26T12:43:23;6.20;;;3.30;;
52934;SDS011;38802;50.198;19.796;2024-02-26T12:45:51;4.00;;;3.00;;
52934;SDS011;38802;50.198;19.796;2024-02-26T12:48:19;4.70;;;2.40;;
52934;SDS011;38802;50.198;19.796;2024-02-26T12:50:48;3.10;;;2.50;;
52934;SDS011;38802;50.198;19.796;2024-02-26T12:53:17;9.40;;;4.10;;
52934;SDS011;38802;50.198;19.796;2024-02-26T12:55:45;4.90;;;3.10;;
52934;SDS011;38802;50.198;19.796;2024-02-26T12:58:14;3.90;;;3.00;;
52934;SDS011;38802;50.198;19.796;2024-02-26T13:00:43;4.10;;;2.40;;
52934;SDS011;38802;50.198;19.796;2024-02-26T13:03:11;7.30;;;3.10;;
52934;SDS011;38802;50.198;19.796;2024-02-26T13:05:40;4.70;;;2.10;;
52934;SDS011;38802;50.198;19.796;2024-02-26T13:08:08;6.20;;;2.50;;
52934;SDS011;38802;50.198;19.796;2024-02-26T13:10:36;3.80;;;3.40;;
52934;SDS011;38802;50.198;19.796;2024-02-26T13:13:05;5.00;;;2.90;;
52934;SDS011;38802;50.198;19.796;2024-02-26T13:15:33;4.30;;;2.60;;
52934;SDS011;38802;50.198;19.796;2024-02-26T13:18:10;3.30;;;2.50;;
52934;SDS011;38802;50.198;19.796;2024-02-26T13:20:40;3.10;;;2.70;;
52934;SDS011;38802;50.198;19.796;2024-02-26T13:23:12;5.70;;;4.10;;
52934;SDS011;38802;50.198;19.796;2024-02-26T13:25:40;5.90;;;4.60;;
52934;SDS011;38802;50.198;19.796;2024-02-26T13:28:16;9.60;;;4.70;;
52934;SDS011;38802;50.198;19.796;2024-02-26T13:30:52;7.30;;;3.90;;
52934;SDS011;38802;50.198;19.796;2024-02-26T13:33:25;5.30;;;4.30;;
52934;SDS011;38802;50.198;19.796;2024-02-26T13:35:55;5.10;;;4.60;;
52934;SDS011;38802;50.198;19.796;2024-02-26T13:38:24;6.20;;;4.20;;
52934;SDS011;38802;50.198;19.796;2024-02-26T13:40:53;6.50;;;4.60;;
52934;SDS011;38802;50.198;19.796;2024-02-26T13:43:21;6.70;;;4.80;;
52934;SDS011;38802;50.198;19.796;2024-02-26T13:45:50;7.90;;;4.10;;
52934;SDS011;38802;50.198;19.796;2024-02-26T13:48:18;5.70;;;4.40;;
52934;SDS011;38802;50.198;19.796;2024-02-26T13:50:47;5.00;;;4.20;;
52934;SDS011;38802;50.198;19.796;2024-02-26T13:53:15;4.60;;;3.90;;
52934;SDS011;38802;50.198;19.796;2024-02-26T13:55:43;5.80;;;3.60;;
52934;SDS011;38802;50.198;19.796;2024-02-26T13:58:12;7.40;;;4.50;;
52934;SDS011;38802;50.198;19.796;2024-02-26T14:00:42;10.70;;;5.00;;
52934;SDS011;38802;50.198;19.796;2024-02-26T14:03:11;4.80;;;4.20;;
52934;SDS011;38802;50.198;19.796;2024-02-26T14:05:40;6.40;;;4.60;;
52934;SDS011;38802;50.198;19.796;2024-02-26T14:08:13;4.90;;;4.40;;
52934;SDS011;38802;50.198;19.796;2024-02-26T14:10:41;7.20;;;5.30;;
52934;SDS011;38802;50.198;19.796;2024-02-26T14:13:09;6.50;;;4.60;;
52934;SDS011;38802;50.198;19.796;2024-02-26T14:15:37;7.20;;;4.70;;
52934;SDS011;38802;50.198;19.796;2024-02-26T14:18:07;6.80;;;5.10;;
52934;SDS011;38802;50.198;19.796;2024-02-26T14:20:36;10.30;;;6.10;;
52934;SDS011;38802;50.198;19.796;2024-02-26T14:23:04;20.00;;;11.30;;
52934;SDS011;38802;50.198;19.796;2024-02-26T14:25:32;15.00;;;10.10;;
52934;SDS011;38802;50.198;19.796;2024-02-26T14:28:01;11.20;;;7.40;;
52934;SDS011;38802;50.198;19.796;2024-02-26T14:30:29;6.90;;;5.40;;
52934;SDS011;38802;50.198;19.796;2024-02-26T14:32:57;12.50;;;5.90;;
52934;SDS011;38802;50.198;19.796;2024-02-26T14:35:25;5.70;;;4.50;;
52934;SDS011;38802;50.198;19.796;2024-02-26T14:37:54;6.20;;;5.20;;
52934;SDS011;38802;50.198;19.796;2024-02-26T14:40:22;6.80;;;5.60;;
52934;SDS011;38802;50.198;19.796;2024-02-26T14:42:51;6.00;;;5.20;;
52934;SDS011;38802;50.198;19.796;2024-02-26T14:45:19;8.10;;;6.10;;
52934;SDS011;38802;50.198;19.796;2024-02-26T14:47:47;8.70;;;6.10;;
52934;SDS011;38802;50.198;19.796;2024-02-26T14:50:16;7.40;;;6.60;;
52934;SDS011;38802;50.198;19.796;2024-02-26T14:52:44;7.80;;;5.50;;
52934;SDS011;38802;50.198;19.796;2024-02-26T14:55:12;6.30;;;5.70;;
52934;SDS011;38802;50.198;19.796;2024-02-26T14:57:41;9.80;;;7.30;;
52934;SDS011;38802;50.198;19.796;2024-02-26T15:00:09;8.80;;;6.20;;
52934;SDS011;38802;50.198;19.796;2024-02-26T15:02:38;5.60;;;5.10;;
52934;SDS011;38802;50.198;19.796;2024-02-26T15:05:07;6.80;;;6.00;;
52934;SDS011;38802;50.198;19.796;2024-02-26T15:07:36;8.50;;;6.60;;
52934;SDS011;38802;50.198;19.796;2024-02-26T15:10:08;16.10;;;8.40;;
52934;SDS011;38802;50.198;19.796;2024-02-26T15:12:36;21.50;;;10.60;;
52934;SDS011;38802;50.198;19.796;2024-02-26T15:15:05;24.40;;;10.20;;
52934;SDS011;38802;50.198;19.796;2024-02-26T15:17:33;16.00;;;8.40;;
52934;SDS011;38802;50.198;19.796;2024-02-26T15:20:04;17.70;;;8.20;;
52934;SDS011;38802;50.198;19.796;2024-02-26T15:22:36;24.40;;;8.60;;
52934;SDS011;38802;50.198;19.796;2024-02-26T15:25:04;25.80;;;11.20;;
52934;SDS011;38802;50.198;19.796;2024-02-26T15:27:33;40.40;;;14.60;;
52934;SDS011;38802;50.198;19.796;2024-02-26T15:30:02;27.20;;;12.10;;
52934;SDS011;38802;50.198;19.796;2024-02-26T15:32:30;30.50;;;12.70;;
52934;SDS011;38802;50.198;19.796;2024-02-26T15:34:59;29.30;;;13.70;;
52934;SDS011;38802;50.198;19.796;2024-02-26T15:37:27;31.30;;;13.00;;
52934;SDS011;38802;50.198;19.796;2024-02-26T15:39:55;33.10;;;12.80;;
52934;SDS011;38802;50.198;19.796;2024-02-26T15:42:23;25.60;;;12.80;;
52934;SDS011;38802;50.198;19.796;2024-02-26T15:44:53;30.30;;;15.20;;
52934;SDS011;38802;50.198;19.796;2024-02-26T15:47:22;32.00;;;14.80;;
52934;SDS011;38802;50.198;19.796;2024-02-26T15:49:50;25.60;;;14.60;;
52934;SDS011;38802;50.198;19.796;2024-02-26T15:52:18;30.10;;;15.50;;